Time;durP1;ratioP1;P1;durP2;ratioP2;P2;SDS_P1;SDS_P2;PMS_P1;PMS_P2;Temp;Humidity;BMP_temperature;BMP_pressure;BME280_temperature;BME280_humidity;BME280_pressure;Samples;Min_cycle;Max_cycle;Signal;HPM_P1;HPM_P2
2023/03/21 00:00:35;;;;;;;4.47;3.25;;;10.00;99.90;;;;;;6260751;28;20187;-77
2023/03/21 00:03:36;;;;;;;4.35;2.95;;;9.80;99.90;;;;;;6263604;28;20049;-77
2023/03/21 00:06:38;;;;;;;6.88;2.92;;;9.90;99.90;;;;;;6270850;28;20067;-77
2023/03/21 00:09:40;;;;;;;7.50;2.97;;;9.80;99.90;;;;;;6268012;28;20053;-78
2023/03/21 00:12:41;;;;;;;5.55;2.78;;;9.70;99.90;;;;;;6287961;28;20051;-78
2023/03/21 00:15:54;;;;;;;4.63;3.20;;;9.70;99.90;;;;;;6298921;28;20060;-78
2023/03/21 00:18:56;;;;;;;3.75;2.85;;;9.70;99.90;;;;;;6301286;28;20052;-77
2023/03/21 00:21:58;;;;;;;3.70;2.92;;;9.60;99.90;;;;;;6284328;28;20059;-79
2023/03/21 00:25:00;;;;;;;3.88;3.47;;;9.60;99.90;;;;;;6279596;28;20048;-78
2023/03/21 00:28:02;;;;;;;6.10;2.95;;;9.60;99.90;;;;;;6281280;28;20056;-78
2023/03/21 00:31:06;;;;;;;3.33;3.00;;;9.60;99.90;;;;;;6280836;28;20037;-78
2023/03/21 00:34:08;;;;;;;4.57;3.03;;;9.50;99.90;;;;;;6279605;28;20296;-78
2023/03/21 00:37:10;;;;;;;6.47;3.13;;;9.50;99.90;;;;;;6280254;28;20415;-78
2023/03/21 00:40:13;;;;;;;4.70;2.92;;;9.40;99.90;;;;;;6280758;28;20048;-78
2023/03/21 00:43:18;;;;;;;5.28;3.20;;;9.40;99.90;;;;;;6278794;28;20041;-78
2023/03/21 00:46:21;;;;;;;3.08;2.78;;;9.40;99.90;;;;;;6277206;28;20106;-78
2023/03/21 00:49:22;;;;;;;9.35;3.97;;;9.40;99.90;;;;;;6274768;28;20041;-77
2023/03/21 00:52:24;;;;;;;4.47;3.20;;;9.40;99.90;;;;;;6274989;28;20045;-78
2023/03/21 00:55:26;;;;;;;3.42;3.13;;;9.40;99.90;;;;;;6275497;28;20119;-77
2023/03/21 00:58:28;;;;;;;5.10;3.28;;;9.40;99.90;;;;;;6274846;28;20044;-77
2023/03/21 01:01:31;;;;;;;9.73;3.60;;;9.40;99.90;;;;;;6275113;28;20041;-77
2023/03/21 01:04:34;;;;;;;6.93;3.42;;;9.40;99.90;;;;;;6274572;28;20048;-77
2023/03/21 01:07:35;;;;;;;3.30;2.78;;;9.40;99.90;;;;;;6275143;28;20060;-78
2023/03/21 01:10:39;;;;;;;5.82;3.80;;;9.40;99.90;;;;;;6275193;28;20045;-78
2023/03/21 01:13:41;;;;;;;6.47;3.72;;;9.40;99.90;;;;;;6274995;28;20052;-77
2023/03/21 01:16:44;;;;;;;3.75;3.38;;;9.30;99.90;;;;;;6274226;28;20415;-77
2023/03/21 01:19:46;;;;;;;4.65;3.90;;;9.30;99.90;;;;;;6274218;28;20499;-77
2023/03/21 01:22:48;;;;;;;7.50;4.15;;;9.30;99.90;;;;;;6273597;28;20432;-77
2023/03/21 01:25:52;;;;;;;5.63;3.45;;;9.20;99.90;;;;;;6273220;28;20052;-77
2023/03/21 01:28:54;;;;;;;8.02;4.13;;;9.10;99.90;;;;;;6273338;28;20056;-77
2023/03/21 01:31:57;;;;;;;4.38;3.65;;;9.10;99.90;;;;;;6273605;28;20137;-78
2023/03/21 01:34:58;;;;;;;4.40;3.70;;;9.00;99.90;;;;;;6273381;28;20044;-77
2023/03/21 01:38:00;;;;;;;5.22;4.03;;;8.90;99.90;;;;;;6273501;28;20044;-77
2023/03/21 01:41:02;;;;;;;5.75;4.45;;;8.90;99.90;;;;;;6273638;28;20495;-78
2023/03/21 01:44:04;;;;;;;3.38;3.03;;;8.80;99.90;;;;;;6273074;28;20393;-77
2023/03/21 01:47:07;;;;;;;4.40;3.95;;;8.80;99.90;;;;;;6280400;28;20415;-77
2023/03/21 01:50:10;;;;;;;5.65;4.35;;;8.70;99.90;;;;;;6297703;28;20071;-77
2023/03/21 01:53:12;;;;;;;4.32;3.92;;;8.70;99.90;;;;;;6297857;28;20040;-78
2023/03/21 01:56:19;;;;;;;5.05;3.95;;;8.70;99.90;;;;;;6298047;28;20131;-77
2023/03/21 01:59:27;;;;;;;4.20;3.80;;;8.70;99.90;;;;;;6297690;28;20186;-77
2023/03/21 02:02:31;;;;;;;10.35;4.15;;;8.70;99.90;;;;;;6297801;28;20059;-77
2023/03/21 02:05:40;;;;;;;4.65;4.20;;;8.60;99.90;;;;;;6296907;28;20415;-77
2023/03/21 02:08:41;;;;;;;5.57;3.42;;;8.60;99.90;;;;;;6275364;28;20115;-79
2023/03/21 02:11:45;;;;;;;5.63;3.40;;;8.50;99.90;;;;;;6283472;28;20407;-77
2023/03/21 02:14:48;;;;;;;5.88;3.58;;;8.40;99.90;;;;;;6282905;28;20045;-79
2023/03/21 02:17:57;;;;;;;5.30;3.63;;;8.40;99.90;;;;;;6280599;28;20077;-76
2023/03/21 02:21:50;;;;;;;5.57;5.00;;;8.30;99.90;;;;;;6271977;28;20048;-76
2023/03/21 02:25:16;;;;;;;3.88;3.35;;;8.30;99.90;;;;;;6267244;28;20365;-79
2023/03/21 02:28:23;;;;;;;4.68;3.33;;;8.40;99.90;;;;;;6283420;28;20049;-78
2023/03/21 02:31:35;;;;;;;5.50;4.00;;;8.30;99.90;;;;;;6284388;28;20430;-79
2023/03/21 02:35:00;;;;;;;6.53;4.07;;;8.30;99.90;;;;;;6285025;28;20055;-79
2023/03/21 02:38:08;;;;;;;4.25;3.85;;;8.20;99.90;;;;;;6282859;28;20045;-79
2023/03/21 02:41:17;;;;;;;5.55;3.95;;;8.20;99.90;;;;;;6282727;28;20053;-79
2023/03/21 02:44:24;;;;;;;5.00;4.15;;;8.10;99.90;;;;;;6284458;28;20061;-79
2023/03/21 02:47:31;;;;;;;5.25;4.03;;;8.10;99.90;;;;;;6286241;28;20053;-79
2023/03/21 02:50:38;;;;;;;4.55;4.15;;;8.20;99.90;;;;;;6285299;28;20053;-79
2023/03/21 02:53:45;;;;;;;5.68;4.80;;;8.10;99.90;;;;;;6285125;28;20052;-79
2023/03/21 02:56:49;;;;;;;5.18;4.22;;;8.10;99.90;;;;;;6286500;28;20045;-78
2023/03/21 02:59:52;;;;;;;4.07;3.67;;;8.10;99.90;;;;;;6287308;28;20056;-79
2023/03/21 03:02:54;;;;;;;5.32;3.92;;;8.10;99.90;;;;;;6286227;28;20519;-79
2023/03/21 03:05:58;;;;;;;9.40;5.28;;;8.20;99.90;;;;;;6290555;28;20120;-79
2023/03/21 03:09:14;;;;;;;4.03;3.65;;;8.20;99.90;;;;;;6308937;28;20056;-79
2023/03/21 03:12:26;;;;;;;6.93;4.30;;;8.20;99.90;;;;;;6309663;28;20071;-78
2023/03/21 03:15:37;;;;;;;4.18;3.85;;;8.20;99.90;;;;;;6309810;28;20049;-78
2023/03/21 03:18:48;;;;;;;4.35;3.60;;;8.20;99.90;;;;;;6309795;28;20059;-79
2023/03/21 03:21:58;;;;;;;4.43;4.03;;;8.20;99.90;;;;;;6309689;28;20047;-79
2023/03/21 03:25:05;;;;;;;4.82;3.85;;;8.10;99.90;;;;;;6309732;28;20048;-79
2023/03/21 03:28:09;;;;;;;4.25;3.88;;;8.10;99.90;;;;;;6310491;28;20469;-79
2023/03/21 03:31:14;;;;;;;4.55;4.05;;;8.10;99.90;;;;;;6307190;28;20059;-79
2023/03/21 03:34:25;;;;;;;4.07;3.67;;;8.10;99.90;;;;;;6306478;28;20045;-79
2023/03/21 03:37:31;;;;;;;5.60;3.90;;;8.00;99.90;;;;;;6308757;28;20049;-79
2023/03/21 03:40:40;;;;;;;3.97;3.60;;;8.00;99.90;;;;;;6308658;28;20063;-79
2023/03/21 03:43:49;;;;;;;11.02;4.20;;;7.90;99.90;;;;;;6309029;28;20492;-79
2023/03/21 03:46:56;;;;;;;5.47;3.83;;;7.80;99.90;;;;;;6305808;28;20526;-78
2023/03/21 03:50:05;;;;;;;5.93;3.55;;;7.70;99.90;;;;;;6306707;28;20051;-79
2023/03/21 03:53:15;;;;;;;4.45;4.05;;;7.70;99.90;;;;;;6308462;28;20068;-79
2023/03/21 03:56:18;;;;;;;5.85;3.60;;;7.60;99.90;;;;;;6312898;28;20052;-79
2023/03/21 03:59:22;;;;;;;4.05;3.42;;;7.50;99.90;;;;;;6301869;28;20053;-76
2023/03/21 04:02:24;;;;;;;6.32;4.80;;;7.50;99.90;;;;;;6300995;28;20040;-80
2023/03/21 04:05:26;;;;;;;7.90;7.07;;;7.40;99.90;;;;;;6285811;28;20048;-79
2023/03/21 04:08:27;;;;;;;5.22;4.07;;;7.30;99.90;;;;;;6286370;28;20051;-79
2023/03/21 04:11:30;;;;;;;4.97;3.30;;;7.20;99.90;;;;;;6285992;28;20051;-79
2023/03/21 04:14:32;;;;;;;4.25;3.85;;;7.20;99.90;;;;;;6285113;28;20049;-78
2023/03/21 04:17:34;;;;;;;4.93;4.00;;;7.20;99.90;;;;;;6281989;28;20052;-77
2023/03/21 04:20:35;;;;;;;6.05;4.38;;;7.10;99.90;;;;;;6275141;28;20049;-76
2023/03/21 04:23:37;;;;;;;7.47;4.95;;;7.00;99.90;;;;;;6275132;28;20049;-77
2023/03/21 04:26:41;;;;;;;11.77;5.13;;;6.90;99.90;;;;;;6275256;28;20049;-76
2023/03/21 04:29:42;;;;;;;5.43;4.60;;;6.90;99.90;;;;;;6274731;28;20040;-77
2023/03/21 04:32:46;;;;;;;6.28;5.78;;;6.90;99.90;;;;;;6274679;28;20055;-77
2023/03/21 04:35:48;;;;;;;5.18;4.68;;;6.80;99.90;;;;;;6275042;28;20069;-77
2023/03/21 04:38:49;;;;;;;4.78;4.15;;;6.80;99.90;;;;;;6274419;28;20041;-76
2023/03/21 04:41:54;;;;;;;4.63;4.15;;;6.80;99.90;;;;;;6274585;28;20118;-76
2023/03/21 04:44:55;;;;;;;5.65;4.25;;;6.90;99.90;;;;;;6274221;28;20127;-77
2023/03/21 04:47:57;;;;;;;6.30;5.70;;;7.00;99.90;;;;;;6274743;28;20415;-77
2023/03/21 04:50:59;;;;;;;4.07;3.65;;;7.00;99.90;;;;;;6274290;28;20499;-77
2023/03/21 04:54:01;;;;;;;4.10;3.15;;;7.10;99.90;;;;;;6273309;28;20463;-77
2023/03/21 04:57:04;;;;;;;6.00;4.20;;;7.10;99.90;;;;;;6273972;28;20049;-76
2023/03/21 05:00:12;;;;;;;5.18;4.30;;;7.10;99.90;;;;;;6277019;28;20053;-78
2023/03/21 05:03:18;;;;;;;;;;;7.10;99.90;;;;;;6279374;28;20044;-78
2023/03/21 05:06:20;;;;;;;5.00;3.35;;;7.00;99.90;;;;;;6277282;28;20038;-77
2023/03/21 05:09:22;;;;;;;6.18;4.32;;;6.90;99.90;;;;;;6277809;28;20052;-78
2023/03/21 05:12:25;;;;;;;3.85;3.55;;;6.90;99.90;;;;;;6278447;28;20132;-78
2023/03/21 05:15:27;;;;;;;4.28;3.72;;;6.90;99.90;;;;;;6277902;28;20427;-77
2023/03/21 05:18:29;;;;;;;3.88;3.47;;;6.80;99.90;;;;;;6277282;28;20086;-78
2023/03/21 05:21:33;;;;;;;11.00;3.92;;;6.80;99.90;;;;;;6278538;28;20056;-78
2023/03/21 05:24:36;;;;;;;4.50;3.80;;;6.80;99.90;;;;;;6279163;28;20060;-77
2023/03/21 05:27:44;;;;;;;4.07;3.67;;;6.70;99.90;;;;;;6280436;28;20191;-77
2023/03/21 05:30:46;;;;;;;;;;;6.60;99.90;;;;;;6278814;28;20045;-78
2023/03/21 05:33:49;;;;;;;3.80;3.50;;;6.60;99.90;;;;;;6279083;28;19927;-78
2023/03/21 05:36:51;;;;;;;4.15;3.65;;;6.50;99.90;;;;;;6274393;28;20071;-78
2023/03/21 05:39:55;;;;;;;4.70;3.95;;;6.50;99.90;;;;;;6277366;28;20099;-78
2023/03/21 05:42:58;;;;;;;5.38;3.38;;;6.50;99.90;;;;;;6274627;28;20064;-78
2023/03/21 05:46:00;;;;;;;6.03;5.15;;;6.40;99.90;;;;;;6276558;28;20060;-78
2023/03/21 05:49:02;;;;;;;4.65;4.22;;;6.40;99.90;;;;;;6278747;28;20060;-79
2023/03/21 05:52:06;;;;;;;3.58;3.22;;;6.40;99.90;;;;;;6278493;28;20388;-79
2023/03/21 05:55:08;;;;;;;5.43;4.50;;;6.50;99.90;;;;;;6277015;28;20490;-78
2023/03/21 05:58:11;;;;;;;5.70;5.18;;;6.50;99.90;;;;;;6275151;28;20049;-78
2023/03/21 06:01:13;;;;;;;7.72;3.67;;;6.50;99.90;;;;;;6277100;28;20056;-79
2023/03/21 06:04:15;;;;;;;5.75;4.55;;;6.50;99.90;;;;;;6277009;28;20127;-78
2023/03/21 06:07:17;;;;;;;5.97;4.43;;;6.70;99.90;;;;;;6276552;28;20056;-78
2023/03/21 06:10:19;;;;;;;3.70;3.40;;;6.80;99.90;;;;;;6297145;23;20040;-77
2023/03/21 06:13:22;;;;;;;4.05;3.42;;;6.90;99.90;;;;;;6308035;28;20101;-77
2023/03/21 06:16:24;;;;;;;6.00;3.70;;;7.00;99.90;;;;;;6297107;28;20059;-77
2023/03/21 06:19:26;;;;;;;3.17;2.88;;;7.10;99.90;;;;;;6297817;28;20147;-77
2023/03/21 06:22:27;;;;;;;3.65;3.35;;;7.30;99.90;;;;;;6296929;28;20045;-77
2023/03/21 06:25:29;;;;;;;4.05;3.65;;;7.40;99.90;;;;;;6296672;28;20049;-77
2023/03/21 06:28:32;;;;;;;4.70;3.78;;;7.70;99.90;;;;;;6296689;28;20426;-76
2023/03/21 06:31:34;;;;;;;3.58;3.10;;;7.80;99.90;;;;;;6296604;28;20075;-77
2023/03/21 06:34:35;;;;;;;3.58;3.28;;;8.00;99.90;;;;;;6296415;28;20044;-77
2023/03/21 06:37:38;;;;;;;4.82;3.63;;;8.20;99.90;;;;;;6296508;28;20528;-77
2023/03/21 06:40:39;;;;;;;6.20;3.45;;;8.40;99.90;;;;;;6296551;28;20056;-77
2023/03/21 06:43:42;;;;;;;6.13;5.30;;;8.50;99.90;;;;;;6297216;28;20044;-77
2023/03/21 06:46:44;;;;;;;4.97;4.28;;;8.80;99.90;;;;;;6296560;28;20051;-77
2023/03/21 06:49:46;;;;;;;4.65;3.22;;;8.90;99.90;;;;;;6295663;28;20051;-77
2023/03/21 06:52:48;;;;;;;3.72;3.42;;;9.20;99.90;;;;;;6295614;28;20094;-76
2023/03/21 06:55:50;;;;;;;4.20;3.85;;;9.40;99.90;;;;;;6296091;28;20058;-77
2023/03/21 06:58:53;;;;;;;4.80;3.10;;;9.70;99.90;;;;;;6295977;28;20048;-77
2023/03/21 07:01:55;;;;;;;3.25;2.95;;;9.80;99.90;;;;;;6295922;28;20048;-77
2023/03/21 07:04:56;;;;;;;4.85;2.97;;;10.00;99.90;;;;;;6295748;28;20045;-77
2023/03/21 07:08:00;;;;;;;3.70;3.17;;;10.10;99.90;;;;;;6296255;28;20051;-77
2023/03/21 07:11:01;;;;;;;6.55;2.90;;;10.10;99.90;;;;;;6295331;28;20491;-77
2023/03/21 07:14:05;;;;;;;4.50;3.53;;;10.20;99.90;;;;;;6295587;28;20068;-77
2023/03/21 07:17:06;;;;;;;4.00;3.58;;;10.40;99.90;;;;;;6295530;28;20437;-77
2023/03/21 07:20:11;;;;;;;3.45;2.47;;;10.40;99.90;;;;;;6296279;28;20052;-77
2023/03/21 07:23:13;;;;;;;3.15;2.85;;;10.60;99.90;;;;;;6295506;28;20521;-77
2023/03/21 07:26:14;;;;;;;4.38;3.97;;;10.90;99.90;;;;;;6295268;28;20418;-77
2023/03/21 07:29:20;;;;;;;2.92;2.50;;;11.20;99.90;;;;;;6296386;28;20178;-77
2023/03/21 07:32:22;;;;;;;3.42;2.85;;;11.40;99.90;;;;;;6296472;28;20135;-77
2023/03/21 07:35:23;;;;;;;3.35;2.75;;;11.60;99.90;;;;;;6295646;28;20075;-77
2023/03/21 07:38:26;;;;;;;12.10;3.95;;;11.70;99.90;;;;;;6266513;28;20105;-77
2023/03/21 07:41:28;;;;;;;7.53;2.40;;;11.90;99.90;;;;;;6297514;28;20044;-77
2023/03/21 07:44:32;;;;;;;3.03;2.78;;;12.20;99.90;;;;;;6296015;28;20045;-77
2023/03/21 07:47:34;;;;;;;2.70;2.50;;;12.60;99.90;;;;;;6302023;28;20048;-77
2023/03/21 07:51:15;;;;;;;5.18;2.50;;;13.30;99.90;;;;;;6301649;28;20110;-77
2023/03/21 07:54:27;;;;;;;2.42;1.77;;;14.20;99.90;;;;;;6274623;28;20120;-76
2023/03/21 07:57:29;;;;;;;8.75;2.97;;;15.10;99.90;;;;;;6293297;28;20055;-77
2023/03/21 08:00:32;;;;;;;3.08;2.05;;;16.00;99.90;;;;;;6293168;28;20055;-76
2023/03/21 08:03:34;;;;;;;4.55;1.88;;;16.90;99.90;;;;;;6296243;28;20508;-75
2023/03/21 08:06:35;;;;;;;4.20;1.55;;;17.70;99.90;;;;;;6295455;28;20053;-75
2023/03/21 08:09:37;;;;;;;3.08;2.47;;;18.10;99.90;;;;;;6295313;28;20051;-75
2023/03/21 08:12:39;;;;;;;2.33;1.65;;;18.20;99.10;;;;;;6295780;28;20040;-75
2023/03/21 08:15:43;;;;;;;2.22;1.83;;;18.10;97.80;;;;;;6297811;28;20131;-76
2023/03/21 08:18:44;;;;;;;2.45;1.92;;;18.00;96.40;;;;;;6298717;28;20044;-81
2023/03/21 08:21:46;;;;;;;4.80;1.77;;;17.50;95.70;;;;;;6305179;28;20048;-78
2023/03/21 08:24:48;;;;;;;2.38;1.55;;;17.10;95.20;;;;;;6292422;28;20045;-78
2023/03/21 08:27:51;;;;;;;2.00;1.60;;;16.60;94.70;;;;;;6302518;28;20064;-78
2023/03/21 08:30:54;;;;;;;3.15;2.70;;;16.30;94.60;;;;;;6300414;28;20052;-78
2023/03/21 08:33:55;;;;;;;3.15;2.25;;;15.80;94.50;;;;;;6300609;28;20041;-78
2023/03/21 08:36:57;;;;;;;2.50;2.30;;;15.40;95.30;;;;;;6302928;28;20520;-77
2023/03/21 08:39:59;;;;;;;2.40;2.13;;;15.50;95.50;;;;;;6304575;28;20045;-78
2023/03/21 08:43:00;;;;;;;4.13;2.28;;;15.70;95.10;;;;;;6307967;28;20048;-78
2023/03/21 08:46:04;;;;;;;2.75;1.98;;;15.60;95.10;;;;;;6306009;28;20413;-77
2023/03/21 08:49:05;;;;;;;2.40;1.83;;;15.60;95.00;;;;;;6310208;28;20041;-78
2023/03/21 08:52:08;;;;;;;3.05;2.20;;;15.70;95.00;;;;;;6305454;28;20055;-77
2023/03/21 08:55:10;;;;;;;3.13;1.88;;;15.80;94.80;;;;;;6297249;28;20032;-78
2023/03/21 08:58:12;;;;;;;2.58;2.28;;;15.80;94.60;;;;;;6276046;28;20059;-78
2023/03/21 09:01:15;;;;;;;3.28;1.80;;;15.90;94.50;;;;;;6278517;28;20053;-77
2023/03/21 09:04:17;;;;;;;3.70;2.10;;;15.70;94.10;;;;;;6278204;28;20051;-77
2023/03/21 09:07:19;;;;;;;2.53;2.08;;;15.50;94.40;;;;;;6277841;28;20130;-77
2023/03/21 09:10:22;;;;;;;3.67;3.10;;;15.40;94.50;;;;;;6276752;28;20064;-77
2023/03/21 09:13:24;;;;;;;3.40;2.10;;;15.40;94.50;;;;;;6276685;28;20041;-77
2023/03/21 09:16:28;;;;;;;2.58;2.13;;;15.40;94.50;;;;;;6275948;28;20438;-78
2023/03/21 09:19:30;;;;;;;3.50;2.13;;;15.40;94.50;;;;;;6275980;28;20049;-77
2023/03/21 09:22:32;;;;;;;2.33;2.13;;;15.30;94.50;;;;;;6276250;28;20041;-78
2023/03/21 09:25:35;;;;;;;3.38;2.08;;;15.30;94.70;;;;;;6295159;28;20064;-78
2023/03/21 09:28:37;;;;;;;2.30;2.10;;;15.30;94.60;;;;;;6276148;28;20410;-77
2023/03/21 09:31:42;;;;;;;2.75;1.83;;;15.30;94.60;;;;;;6277136;28;20052;-77
2023/03/21 09:34:44;;;;;;;4.85;1.98;;;15.40;94.70;;;;;;6275496;28;20048;-78
2023/03/21 09:37:47;;;;;;;2.97;2.38;;;15.40;94.60;;;;;;6279363;28;20048;-80
2023/03/21 09:41:11;;;;;;;5.68;2.53;;;15.20;94.40;;;;;;6293688;28;20056;-77
2023/03/21 09:44:27;;;;;;;2.83;2.28;;;15.10;94.30;;;;;;6293000;28;20415;-77
2023/03/21 09:47:33;;;;;;;3.10;2.78;;;15.00;94.50;;;;;;6292872;28;20056;-77
2023/03/21 09:50:37;;;;;;;6.75;2.78;;;15.00;94.50;;;;;;6291256;28;20506;-77
2023/03/21 09:53:43;;;;;;;3.03;2.67;;;14.90;94.30;;;;;;6291278;28;20056;-76
2023/03/21 09:56:46;;;;;;;17.00;3.72;;;15.00;94.40;;;;;;6295949;28;20045;-78
2023/03/21 09:59:52;;;;;;;1.90;1.55;;;15.00;94.30;;;;;;6295243;28;20052;-78
2023/03/21 10:02:58;;;;;;;2.80;2.30;;;15.00;94.30;;;;;;6294555;28;20949;-78
2023/03/21 10:06:04;;;;;;;7.18;2.65;;;15.00;94.10;;;;;;6295743;28;20098;-80
2023/03/21 10:09:08;;;;;;;3.95;2.03;;;14.90;94.40;;;;;;6292177;28;20055;-75
2023/03/21 10:12:16;;;;;;;4.75;2.50;;;15.00;94.60;;;;;;6289063;28;20056;-77
2023/03/21 10:15:21;;;;;;;3.72;2.38;;;15.10;94.70;;;;;;6288898;28;20040;-77
2023/03/21 10:18:26;;;;;;;2.92;2.65;;;15.10;94.60;;;;;;6287990;28;20063;-77
2023/03/21 10:21:30;;;;;;;2.38;1.83;;;15.10;94.50;;;;;;6290117;28;20048;-79
2023/03/21 10:24:34;;;;;;;1.50;1.40;;;15.10;94.40;;;;;;6292037;28;20063;-80
2023/03/21 10:27:37;;;;;;;2.17;1.98;;;14.90;94.60;;;;;;6293333;28;20048;-79
2023/03/21 10:30:41;;;;;;;2.42;2.17;;;15.10;94.70;;;;;;6293507;28;20044;-79
2023/03/21 10:33:47;;;;;;;5.18;2.60;;;15.20;94.60;;;;;;6290195;28;20040;-77
2023/03/21 10:36:49;;;;;;;2.63;2.03;;;15.30;94.40;;;;;;6291407;28;20064;-80
2023/03/21 10:39:55;;;;;;;2.45;2.13;;;15.50;94.40;;;;;;6291233;28;20053;-80
2023/03/21 10:43:16;;;;;;;5.22;2.28;;;15.60;93.90;;;;;;6290985;28;20053;-77
2023/03/21 10:46:19;;;;;;;3.08;2.33;;;15.80;93.50;;;;;;6289545;28;20040;-78
2023/03/21 10:49:24;;;;;;;2.10;1.92;;;15.90;93.40;;;;;;6290695;28;20048;-78
2023/03/21 10:52:30;;;;;;;5.07;2.63;;;16.10;93.30;;;;;;6291085;28;20044;-77
2023/03/21 10:55:34;;;;;;;4.25;2.30;;;16.20;93.40;;;;;;6290025;28;20044;-78
2023/03/21 10:58:41;;;;;;;3.47;1.88;;;16.40;92.90;;;;;;6291574;28;20048;-77
2023/03/21 11:01:48;;;;;;;3.88;2.30;;;16.90;92.60;;;;;;6290644;28;20047;-76
2023/03/21 11:04:53;;;;;;;2.28;1.98;;;17.20;92.20;;;;;;6290691;28;20040;-78
2023/03/21 11:08:01;;;;;;;4.05;2.85;;;17.40;91.20;;;;;;6290667;28;20053;-76
2023/03/21 11:11:05;;;;;;;3.20;2.90;;;17.40;91.00;;;;;;6289777;28;20500;-77
2023/03/21 11:14:23;;;;;;;3.13;2.05;;;17.60;90.80;;;;;;6289962;28;20055;-77
2023/03/21 11:17:31;;;;;;;4.88;2.17;;;17.60;90.50;;;;;;6291461;28;20044;-77
2023/03/21 11:20:34;;;;;;;2.90;2.08;;;17.80;90.30;;;;;;6290733;28;20135;-77
2023/03/21 11:23:40;;;;;;;4.20;2.20;;;18.50;89.90;;;;;;6288270;28;20036;-77
2023/03/21 11:26:44;;;;;;;4.57;2.85;;;19.10;87.50;;;;;;6288493;28;20510;-76
2023/03/21 11:29:48;;;;;;;2.80;2.42;;;19.40;86.20;;;;;;6289156;28;20037;-77
2023/03/21 11:32:54;;;;;;;2.15;1.90;;;19.80;84.30;;;;;;6291341;28;20433;-77
2023/03/21 11:36:03;;;;;;;3.13;2.20;;;20.00;83.20;;;;;;6290217;28;20055;-76
2023/03/21 11:39:27;;;;;;;1.83;1.73;;;20.50;81.80;;;;;;6286005;28;20053;-77
2023/03/21 11:42:32;;;;;;;3.15;2.17;;;20.60;80.40;;;;;;6287319;28;20048;-77
2023/03/21 11:45:35;;;;;;;1.77;1.67;;;21.00;79.40;;;;;;6288893;28;20048;-76
2023/03/21 11:48:40;;;;;;;2.50;2.30;;;21.20;76.70;;;;;;6286622;28;20044;-76
2023/03/21 11:51:51;;;;;;;4.68;2.25;;;21.30;76.10;;;;;;6288876;28;20056;-78
2023/03/21 11:55:09;;;;;;;2.15;1.95;;;21.40;74.60;;;;;;6284883;28;20047;-77
2023/03/21 11:58:32;;;;;;;2.45;2.25;;;21.60;73.90;;;;;;6290364;28;20049;-77
2023/03/21 12:01:40;;;;;;;2.20;1.45;;;21.70;72.90;;;;;;6289283;28;20051;-77
2023/03/21 12:04:48;;;;;;;1.90;1.67;;;21.60;70.80;;;;;;6290596;28;20063;-79
2023/03/21 12:08:00;;;;;;;5.40;1.85;;;21.00;70.70;;;;;;6293902;28;20048;-77
2023/03/21 12:11:13;;;;;;;1.88;1.73;;;21.00;70.90;;;;;;6286878;28;20048;-77
2023/03/21 12:14:24;;;;;;;2.05;1.85;;;21.10;70.10;;;;;;6305860;28;20032;-77
2023/03/21 12:17:37;;;;;;;4.35;2.15;;;21.00;69.50;;;;;;6291386;28;20059;-76
2023/03/21 12:20:43;;;;;;;3.03;2.28;;;20.80;69.60;;;;;;6294462;28;20052;-77
2023/03/21 12:24:04;;;;;;;2.00;1.80;;;20.60;70.10;;;;;;6293408;28;20044;-77
2023/03/21 12:27:14;;;;;;;1.90;1.65;;;20.50;70.50;;;;;;6294445;28;20049;-77
2023/03/21 12:30:36;;;;;;;5.22;2.13;;;20.80;70.00;;;;;;6282036;28;20059;-77
2023/03/21 12:33:57;;;;;;;1.73;1.48;;;21.00;68.90;;;;;;6292474;28;20052;-76
2023/03/21 12:37:09;;;;;;;4.35;1.92;;;21.00;67.30;;;;;;6292709;28;20060;-76
2023/03/21 12:40:22;;;;;;;1.50;1.40;;;21.10;67.60;;;;;;6292611;28;20061;-76
2023/03/21 12:43:33;;;;;;;2.33;1.90;;;21.00;68.00;;;;;;6291885;28;20044;-76
2023/03/21 12:46:40;;;;;;;2.13;1.58;;;20.90;67.90;;;;;;6293315;28;20071;-76
2023/03/21 12:49:47;;;;;;;2.15;1.80;;;20.90;67.80;;;;;;6292606;28;20040;-77
2023/03/21 12:52:52;;;;;;;5.57;5.18;;;20.90;67.60;;;;;;6295156;28;20044;-77
2023/03/21 12:55:58;;;;;;;2.08;1.50;;;21.00;67.60;;;;;;6293600;28;20058;-78
2023/03/21 12:59:06;;;;;;;4.55;3.70;;;21.10;66.70;;;;;;6291974;28;20045;-76
2023/03/21 13:02:22;;;;;;;7.97;7.00;;;21.20;67.30;;;;;;6291921;28;20052;-77
2023/03/21 13:05:30;;;;;;;8.85;7.35;;;21.20;66.80;;;;;;6292430;28;20041;-77
2023/03/21 13:08:37;;;;;;;2.88;2.40;;;21.40;66.70;;;;;;6292156;28;20501;-77
2023/03/21 13:11:40;;;;;;;26.75;22.33;;;21.60;65.70;;;;;;6292898;28;20461;-78
2023/03/21 13:14:49;;;;;;;7.38;6.75;;;21.50;65.50;;;;;;6292143;28;20044;-76
2023/03/21 13:17:57;;;;;;;2.75;1.00;;;21.60;65.30;;;;;;6292473;28;20052;-76
2023/03/21 13:21:01;;;;;;;11.35;7.53;;;21.50;64.70;;;;;;6292811;28;20052;-76
2023/03/21 13:24:05;;;;;;;1.73;1.50;;;21.40;64.10;;;;;;6293031;28;20067;-78
2023/03/21 13:27:19;;;;;;;4.28;1.25;;;21.30;63.90;;;;;;6292717;28;20125;-77
2023/03/21 13:30:24;;;;;;;3.20;2.20;;;21.20;63.60;;;;;;6293473;28;20507;-77
2023/03/21 13:33:30;;;;;;;2.60;1.75;;;21.10;63.90;;;;;;6292569;28;20083;-77
2023/03/21 13:36:36;;;;;;;1.33;1.23;;;21.10;63.20;;;;;;6292318;28;20057;-77
2023/03/21 13:39:45;;;;;;;3.53;1.77;;;21.00;63.70;;;;;;6291758;28;20056;-77
2023/03/21 13:42:58;;;;;;;2.45;1.42;;;21.00;64.20;;;;;;6291761;28;20104;-78
2023/03/21 13:46:08;;;;;;;10.32;9.32;;;21.10;64.00;;;;;;6292423;28;20126;-77
2023/03/21 13:49:27;;;;;;;4.30;1.60;;;21.10;63.60;;;;;;6291868;28;20135;-77
2023/03/21 13:52:29;;;;;;;9.23;8.35;;;20.70;63.10;;;;;;6292414;28;20051;-78
2023/03/21 13:55:40;;;;;;;6.65;3.45;;;20.60;64.50;;;;;;6293313;28;20052;-77
2023/03/21 13:59:02;;;;;;;3.70;2.75;;;20.80;64.70;;;;;;6293468;28;20113;-78
2023/03/21 14:02:32;;;;;;;2.85;2.08;;;20.90;64.10;;;;;;6291681;28;20159;-78
2023/03/21 14:05:35;;;;;;;4.82;1.95;;;20.90;64.10;;;;;;6292137;28;20041;-77
2023/03/21 14:08:40;;;;;;;2.13;1.65;;;20.80;63.60;;;;;;6293934;28;20048;-78
2023/03/21 14:11:43;;;;;;;5.57;1.85;;;20.40;63.80;;;;;;6292924;28;20048;-78
2023/03/21 14:14:50;;;;;;;2.33;1.20;;;20.20;63.70;;;;;;6294906;28;21127;-78
2023/03/21 14:17:54;;;;;;;1.48;1.38;;;20.00;63.90;;;;;;6290158;28;20391;-78
2023/03/21 14:21:00;;;;;;;2.67;1.92;;;19.90;63.90;;;;;;6295970;28;20048;-80
2023/03/21 14:24:04;;;;;;;1.05;1.00;;;19.60;64.10;;;;;;6295117;28;20380;-78
2023/03/21 14:27:06;;;;;;;2.15;1.73;;;19.20;64.30;;;;;;6290319;28;20058;-76
2023/03/21 14:30:21;;;;;;;3.22;1.30;;;18.90;64.90;;;;;;6292095;28;20044;-80
2023/03/21 14:33:27;;;;;;;3.03;2.22;;;18.80;65.10;;;;;;6291825;28;20528;-79
2023/03/21 14:36:33;;;;;;;2.10;1.95;;;18.80;64.90;;;;;;6291401;28;20056;-78
2023/03/21 14:39:53;;;;;;;3.25;1.70;;;18.70;64.60;;;;;;6289746;28;20045;-78
2023/03/21 14:42:55;;;;;;;2.40;1.27;;;18.50;64.60;;;;;;6289616;28;20049;-77
2023/03/21 14:45:58;;;;;;;1.48;1.30;;;18.30;64.00;;;;;;6290051;28;20055;-76
2023/03/21 14:49:14;;;;;;;1.90;1.10;;;18.00;64.00;;;;;;6291419;28;20451;-77
2023/03/21 14:52:20;;;;;;;1.60;1.50;;;17.90;64.00;;;;;;6292306;28;20141;-78
2023/03/21 14:55:22;;;;;;;2.30;1.55;;;17.90;63.80;;;;;;6290511;28;20193;-77
2023/03/21 14:58:25;;;;;;;1.00;0.95;;;17.70;63.50;;;;;;6290278;28;20044;-76
2023/03/21 15:01:31;;;;;;;1.02;0.95;;;17.70;63.50;;;;;;6291357;28;20053;-78
2023/03/21 15:04:33;;;;;;;2.38;1.23;;;17.70;63.40;;;;;;6314035;22;20062;-83
2023/03/21 15:07:36;;;;;;;1.60;1.50;;;17.70;63.60;;;;;;6281040;28;20049;-82
2023/03/21 15:10:38;;;;;;;4.05;1.80;;;17.60;63.70;;;;;;6278126;28;20049;-83
2023/03/21 15:13:55;;;;;;;1.95;1.17;;;17.60;63.90;;;;;;6261675;28;20037;-82
2023/03/21 15:17:06;;;;;;;2.97;1.60;;;17.50;63.90;;;;;;6278921;28;20053;-81
2023/03/21 15:20:44;;;;;;;1.58;1.35;;;17.50;64.20;;;;;;6277055;28;20109;-82
2023/03/21 15:23:48;;;;;;;1.52;1.20;;;17.60;64.50;;;;;;6276935;28;20060;-82
2023/03/21 15:26:59;;;;;;;2.83;1.80;;;17.60;64.90;;;;;;6278984;28;20060;-82
2023/03/21 15:30:03;;;;;;;4.22;1.67;;;17.50;65.50;;;;;;6277164;28;20064;-81
2023/03/21 15:33:23;;;;;;;2.05;1.70;;;17.50;66.10;;;;;;6274283;28;20053;-82
2023/03/21 15:36:27;;;;;;;1.65;1.55;;;17.50;66.50;;;;;;6272474;28;20059;-80
2023/03/21 15:39:51;;;;;;;3.05;2.75;;;17.30;66.50;;;;;;6271818;28;20047;-83
2023/03/21 15:43:05;;;;;;;2.10;1.23;;;17.30;67.10;;;;;;6253837;28;20057;-81
2023/03/21 15:46:13;;;;;;;3.78;1.42;;;17.30;67.10;;;;;;6274447;28;20667;-82
2023/03/21 15:49:26;;;;;;;2.75;1.50;;;17.20;67.20;;;;;;6277888;28;20055;-83
2023/03/21 15:52:28;;;;;;;2.92;1.60;;;17.20;67.40;;;;;;6276750;28;20044;-83
2023/03/21 15:55:37;;;;;;;1.35;1.25;;;17.00;67.50;;;;;;6275634;28;20129;-84
2023/03/21 15:58:42;;;;;;;2.20;1.10;;;17.00;67.80;;;;;;6276592;28;20041;-82
2023/03/21 16:01:46;;;;;;;1.80;1.40;;;16.90;68.30;;;;;;6275964;28;20049;-82
2023/03/21 16:05:00;;;;;;;1.52;1.10;;;16.90;68.80;;;;;;6263466;28;20061;-84
2023/03/21 16:08:18;;;;;;;4.93;1.55;;;16.90;68.90;;;;;;6278440;28;20052;-83
2023/03/21 16:11:25;;;;;;;2.33;1.57;;;16.80;69.00;;;;;;6278590;28;20463;-82